createdAt,value
2018-04-12T00:02:28.733Z,13.05
2018-04-12T00:04:58.010Z,13.05
2018-04-12T00:07:26.778Z,13.03
2018-04-12T00:09:56.109Z,12.97
2018-04-12T00:12:24.462Z,13.09
2018-04-12T00:14:53.419Z,13.03
2018-04-12T00:17:22.164Z,13.01
2018-04-12T00:19:51.350Z,13.02
2018-04-12T00:22:19.744Z,12.96
2018-04-12T00:24:48.417Z,13.05
2018-04-12T00:27:18.100Z,12.93
2018-04-12T00:29:46.768Z,12.88
2018-04-12T00:32:17.720Z,12.87
2018-04-12T00:34:46.849Z,12.94
2018-04-12T00:37:15.540Z,12.79
2018-04-12T00:39:44.485Z,12.74
2018-04-12T00:42:13.026Z,12.76
2018-04-12T00:44:42.230Z,12.86
2018-04-12T00:47:10.588Z,12.82
2018-04-12T00:49:39.822Z,12.82
2018-04-12T00:52:08.258Z,12.78
2018-04-12T00:54:36.645Z,12.77
2018-04-12T00:57:06.413Z,12.72
2018-04-12T00:59:35.648Z,12.75
2018-04-12T01:02:04.704Z,12.72
2018-04-12T01:04:33.078Z,12.73
2018-04-12T01:07:02.101Z,12.78
2018-04-12T01:09:31.266Z,12.70
2018-04-12T01:12:00.207Z,12.69
2018-04-12T01:14:28.993Z,12.61
2018-04-12T01:16:57.385Z,12.67
2018-04-12T01:19:25.771Z,12.64
2018-04-12T01:21:55.005Z,12.66
2018-04-12T01:24:24.222Z,12.69
2018-04-12T01:26:52.619Z,12.65
2018-04-12T01:29:20.995Z,12.50
2018-04-12T01:31:49.403Z,12.64
2018-04-12T01:34:18.695Z,12.29
2018-04-12T01:36:47.616Z,12.26
2018-04-12T01:39:15.968Z,12.27
2018-04-12T01:41:46.043Z,12.29
2018-04-12T01:44:14.372Z,12.26
2018-04-12T01:46:44.585Z,12.23
2018-04-12T01:49:13.757Z,12.29
2018-04-12T01:51:42.264Z,12.18
2018-04-12T01:54:11.029Z,12.16
2018-04-12T01:56:39.780Z,12.01
2018-04-12T01:59:08.870Z,12.10
2018-04-12T02:01:37.235Z,11.98
2018-04-12T02:04:05.643Z,12.03
2018-04-12T02:06:34.984Z,11.93
2018-04-12T02:09:04.482Z,11.98
2018-04-12T02:11:34.566Z,12.02
2018-04-12T02:14:03.185Z,11.85
2018-04-12T02:16:31.790Z,11.84
2018-04-12T02:19:01.074Z,11.82
2018-04-12T02:21:29.459Z,11.89
2018-04-12T02:23:57.892Z,11.76
2018-04-12T02:26:27.066Z,11.82
2018-04-12T02:28:55.431Z,11.85
2018-04-12T02:31:23.916Z,11.84
2018-04-12T02:33:53.250Z,11.77
2018-04-12T02:36:23.417Z,11.72
2018-04-12T02:38:51.788Z,11.66
2018-04-12T02:41:20.731Z,11.79
2018-04-12T02:43:49.089Z,11.77
2018-04-12T02:46:18.439Z,11.74
2018-04-12T02:48:47.110Z,11.65
2018-04-12T02:51:15.784Z,11.65
2018-04-12T02:53:44.113Z,11.74
2018-04-12T02:56:12.785Z,11.57
2018-04-12T02:58:41.588Z,11.60
2018-04-12T03:01:10.070Z,11.75
2018-04-12T03:03:39.244Z,11.69
2018-04-12T03:06:08.468Z,11.78
2018-04-12T03:08:36.849Z,11.83
2018-04-12T03:11:06.743Z,11.79
2018-04-12T03:13:35.079Z,11.85
2018-04-12T03:16:03.713Z,11.77
2018-04-12T03:18:32.993Z,11.72
2018-04-12T03:21:02.416Z,11.85
2018-04-12T03:23:31.773Z,11.82
2018-04-12T03:26:01.936Z,11.83
2018-04-12T03:28:31.359Z,11.91
2018-04-12T03:30:59.689Z,12.03
2018-04-12T03:33:28.872Z,11.95
2018-04-12T03:35:58.265Z,12.02
2018-04-12T03:38:26.697Z,12.12
2018-04-12T03:40:55.054Z,12.10
2018-04-12T03:43:23.424Z,12.05
2018-04-12T03:45:51.780Z,12.09
2018-04-12T03:48:20.188Z,12.04
2018-04-12T03:50:49.693Z,12.06
2018-04-12T03:53:18.916Z,11.99
2018-04-12T03:55:48.536Z,12.16
2018-04-12T03:58:17.691Z,12.13
2018-04-12T04:00:47.186Z,12.18
2018-04-12T04:03:16.956Z,12.17
2018-04-12T04:05:46.461Z,12.12
2018-04-12T04:08:15.683Z,12.15
2018-04-12T04:10:44.037Z,12.03
2018-04-12T04:13:13.294Z,12.07
2018-04-12T04:15:54.024Z,12.16
2018-04-12T04:18:34.760Z,12.27
2018-04-12T04:21:19.738Z,12.18
2018-04-12T04:23:48.957Z,12.28
2018-04-12T04:26:18.473Z,12.26
2018-04-12T04:28:46.973Z,12.30
2018-04-12T04:31:15.318Z,12.29
2018-04-12T04:33:43.730Z,12.18
2018-04-12T04:36:13.162Z,12.29
2018-04-12T04:38:42.624Z,12.38
2018-04-12T04:41:10.993Z,12.22
2018-04-12T04:43:39.397Z,12.19
2018-04-12T04:46:08.701Z,12.21
2018-04-12T04:48:38.429Z,12.26
2018-04-12T04:51:07.770Z,12.40
2018-04-12T04:53:37.050Z,12.25
2018-04-12T04:56:05.985Z,12.37
2018-04-12T04:58:35.064Z,12.24
2018-04-12T05:01:03.436Z,12.25
2018-04-12T05:03:32.691Z,12.21
2018-04-12T05:06:01.051Z,12.24
2018-04-12T05:08:29.466Z,12.25
2018-04-12T05:10:58.677Z,12.12
2018-04-12T05:13:27.039Z,12.29
2018-04-12T05:15:55.898Z,12.36
2018-04-12T05:18:24.980Z,12.35
2018-04-12T05:20:54.534Z,12.44
2018-04-12T05:23:24.828Z,12.37
2018-04-12T05:25:53.221Z,12.46
2018-04-12T05:28:21.858Z,12.48
2018-04-12T05:30:51.858Z,12.55
2018-04-12T05:33:20.809Z,12.54
2018-04-12T05:35:50.098Z,12.49
2018-04-12T05:38:19.497Z,12.57
2018-04-12T05:40:47.879Z,12.54
2018-04-12T05:43:17.536Z,12.49
2018-04-12T05:45:46.626Z,12.52
2018-04-12T05:48:15.375Z,12.50
2018-04-12T05:50:43.807Z,12.55
2018-04-12T05:53:12.177Z,12.58
2018-04-12T05:55:40.512Z,12.64
2018-04-12T05:58:09.179Z,12.55
2018-04-12T06:00:37.549Z,12.58
2018-04-12T06:03:05.911Z,12.72
2018-04-12T06:05:34.859Z,12.65
2018-04-12T06:08:04.579Z,12.64
2018-04-12T06:10:32.982Z,12.79
2018-04-12T06:13:02.641Z,12.87
2018-04-12T06:15:30.974Z,12.82
2018-04-12T06:18:00.289Z,12.84
2018-04-12T06:20:29.718Z,12.92
2018-04-12T06:22:58.113Z,12.85
2018-04-12T06:25:26.450Z,12.84
2018-04-12T06:27:54.804Z,12.95
2018-04-12T06:30:24.231Z,12.95
2018-04-12T06:32:52.631Z,12.98
2018-04-12T06:35:21.189Z,12.90
2018-04-12T06:37:49.583Z,12.96
2018-04-12T06:40:18.067Z,13.09
2018-04-12T06:42:46.482Z,13.11
2018-04-12T06:45:15.214Z,13.24
2018-04-12T06:47:43.562Z,13.30
2018-04-12T06:50:11.964Z,13.37
2018-04-12T06:52:40.311Z,13.48
2018-04-12T06:55:08.957Z,13.59
2018-04-12T06:57:39.257Z,13.57
2018-04-12T07:00:08.868Z,13.70
2018-04-12T07:02:37.457Z,13.83
2018-04-12T07:05:06.438Z,13.93
2018-04-12T07:07:35.290Z,14.00
2018-04-12T07:10:03.896Z,14.14
2018-04-12T07:12:33.238Z,14.38
2018-04-12T07:15:02.508Z,14.66
2018-04-12T07:17:30.948Z,14.71
2018-04-12T07:20:00.058Z,14.84
2018-04-12T07:22:28.516Z,14.76
2018-04-12T07:24:57.005Z,14.74
2018-04-12T07:27:27.958Z,15.02
2018-04-12T07:29:57.865Z,15.10
2018-04-12T07:32:26.280Z,15.39
2018-04-12T07:34:54.845Z,15.52
2018-04-12T07:37:23.256Z,15.69
2018-04-12T07:39:51.925Z,15.86
2018-04-12T07:42:20.325Z,15.95
2018-04-12T07:44:48.667Z,15.94
2018-04-12T07:47:17.032Z,15.89
2018-04-12T07:49:48.123Z,15.96
2018-04-12T07:52:17.394Z,15.96
2018-04-12T07:54:45.732Z,16.15
2018-04-12T07:57:14.948Z,15.96
2018-04-12T07:59:43.946Z,16.11
2018-04-12T08:02:13.873Z,16.01
2018-04-12T08:04:42.272Z,16.07
2018-04-12T08:07:12.491Z,16.17
2018-04-12T08:09:42.409Z,16.25
2018-04-12T08:12:11.562Z,16.26
2018-04-12T08:14:40.870Z,16.41
2018-04-12T08:17:09.534Z,16.39
2018-04-12T08:19:39.582Z,16.47
2018-04-12T08:22:08.578Z,16.70
2018-04-12T08:24:38.584Z,16.98
2018-04-12T08:27:07.251Z,17.00
2018-04-12T08:29:35.637Z,17.07
2018-04-12T08:32:04.294Z,17.14
2018-04-12T08:34:33.693Z,17.43
2018-04-12T08:37:02.436Z,17.60
2018-04-12T08:39:30.787Z,17.82
2018-04-12T08:41:59.125Z,17.84
2018-04-12T08:44:27.858Z,17.87
2018-04-12T08:46:57.033Z,17.85
2018-04-12T08:49:25.978Z,18.02
2018-04-12T08:51:55.040Z,18.25
2018-04-12T08:54:23.775Z,18.40
2018-04-12T08:56:52.132Z,18.53
2018-04-12T08:59:20.544Z,18.18
2018-04-12T09:01:49.784Z,18.30
2018-04-12T09:04:18.147Z,18.21
2018-04-12T09:06:46.504Z,18.60
2018-04-12T09:09:17.386Z,18.59
2018-04-12T09:11:45.717Z,18.71
2018-04-12T09:14:14.136Z,18.62
2018-04-12T09:16:42.754Z,18.90
2018-04-12T09:19:13.138Z,18.99
2018-04-12T09:21:41.478Z,18.98
2018-04-12T09:24:10.634Z,18.88
2018-04-12T09:26:39.773Z,19.29
2018-04-12T09:29:08.819Z,19.31
2018-04-12T09:31:37.307Z,19.65
2018-04-12T09:34:06.474Z,19.55
2018-04-12T09:36:35.104Z,19.67
2018-04-12T09:39:04.521Z,19.48
2018-04-12T09:41:34.067Z,20.06
2018-04-12T09:44:02.705Z,20.09
2018-04-12T09:46:31.802Z,20.13
2018-04-12T09:49:00.991Z,20.57
2018-04-12T09:51:31.140Z,20.50
2018-04-12T09:54:00.743Z,20.49
2018-04-12T09:56:30.432Z,20.54
2018-04-12T09:58:59.805Z,20.71
2018-04-12T10:01:28.570Z,20.86
2018-04-12T10:03:58.664Z,21.17
2018-04-12T10:09:33.185Z,21.26
2018-04-12T10:12:01.521Z,21.46
2018-04-12T10:14:29.875Z,22.18
2018-04-12T10:16:58.216Z,22.36
2018-04-12T10:19:28.842Z,21.84
2018-04-12T10:21:58.438Z,22.62
2018-04-12T10:24:27.749Z,22.76
2018-04-12T10:26:56.121Z,22.77
2018-04-12T10:29:25.703Z,22.53
2018-04-12T10:31:54.021Z,22.51
2018-04-12T10:34:22.391Z,22.88
2018-04-12T10:36:52.139Z,23.09
2018-04-12T10:39:20.605Z,23.02
2018-04-12T10:41:49.315Z,22.89
2018-04-12T10:44:18.570Z,22.91
2018-04-12T10:46:46.992Z,22.92
2018-04-12T10:49:15.789Z,23.10
2018-04-12T10:51:44.871Z,22.89
2018-04-12T10:54:14.893Z,22.98
2018-04-12T10:56:44.055Z,22.89
2018-04-12T10:59:13.851Z,23.11
2018-04-12T11:01:42.251Z,22.99
2018-04-12T11:04:10.719Z,23.10
2018-04-12T11:06:39.062Z,23.52
2018-04-12T11:09:07.463Z,23.63
2018-04-12T11:11:35.836Z,23.63
2018-04-12T11:14:04.207Z,23.68
2018-04-12T11:16:33.444Z,23.37
2018-04-12T11:19:01.789Z,23.02
2018-04-12T11:21:30.795Z,23.11
2018-04-12T11:23:59.931Z,23.52
2018-04-12T11:26:28.286Z,24.11
2018-04-12T11:28:57.217Z,24.23
2018-04-12T11:31:26.537Z,23.75
2018-04-12T11:33:54.892Z,23.55
2018-04-12T11:36:25.843Z,23.68
2018-04-12T11:38:55.121Z,22.55
2018-04-12T11:41:24.298Z,23.48
2018-04-12T11:43:53.580Z,23.89
2018-04-12T11:46:22.553Z,24.37
2018-04-12T11:48:50.950Z,24.56
2018-04-12T11:51:19.847Z,24.74
2018-04-12T11:53:48.255Z,24.56
2018-04-12T11:56:16.645Z,24.89
2018-04-12T11:58:47.071Z,25.12
2018-04-12T12:01:16.934Z,25.15
2018-04-12T12:03:45.606Z,25.52
2018-04-12T12:06:14.521Z,24.95
2018-04-12T12:08:42.917Z,24.62
2018-04-12T12:11:12.591Z,24.47
2018-04-12T12:13:42.700Z,24.80
2018-04-12T12:16:11.093Z,24.99
2018-04-12T12:18:40.382Z,23.64
2018-04-12T12:21:11.105Z,22.70
2018-04-12T12:23:39.727Z,22.86
2018-04-12T12:26:08.989Z,23.26
2018-04-12T12:28:37.385Z,24.32
2018-04-12T12:31:06.656Z,25.21
2018-04-12T12:33:36.199Z,24.89
2018-04-12T12:36:05.931Z,25.15
2018-04-12T12:38:35.956Z,23.29
2018-04-12T12:41:04.332Z,24.06
2018-04-12T12:43:33.739Z,24.17
2018-04-12T12:46:03.003Z,24.22
2018-04-12T12:48:32.299Z,24.06
2018-04-12T12:51:02.359Z,24.20
2018-04-12T12:53:31.706Z,24.36
2018-04-12T12:56:01.588Z,24.16
2018-04-12T12:58:30.136Z,23.12
2018-04-12T13:00:58.461Z,23.94
2018-04-12T13:03:27.775Z,23.99
2018-04-12T13:05:56.225Z,23.54
2018-04-12T13:08:25.517Z,23.67
2018-04-12T13:10:53.976Z,23.88
2018-04-12T13:13:23.431Z,23.84
2018-04-12T13:15:51.757Z,23.64
2018-04-12T13:18:20.205Z,23.22
2018-04-12T13:20:49.529Z,22.75
2018-04-12T13:23:17.913Z,22.97
2018-04-12T13:25:46.339Z,23.09
2018-04-12T13:28:14.916Z,22.91
2018-04-12T13:30:44.449Z,22.88
2018-04-12T13:33:13.683Z,22.57
2018-04-12T13:35:42.757Z,22.50
2018-04-12T13:38:11.965Z,22.27
2018-04-12T13:40:40.353Z,22.42
2018-04-12T13:43:08.690Z,22.23
2018-04-12T13:45:39.029Z,22.48
2018-04-12T13:48:07.464Z,22.54
2018-04-12T13:50:37.477Z,22.44
2018-04-12T13:53:05.789Z,22.12
2018-04-12T13:55:35.706Z,22.30
2018-04-12T13:58:04.452Z,22.24
2018-04-12T14:00:32.825Z,22.20
2018-04-12T14:03:01.214Z,22.15
2018-04-12T14:05:29.636Z,21.80
2018-04-12T14:07:58.502Z,21.83
2018-04-12T14:10:26.901Z,21.71
2018-04-12T14:12:55.661Z,21.69
2018-04-12T14:15:24.810Z,21.80
2018-04-12T14:17:53.149Z,21.66
2018-04-12T14:20:26.011Z,21.57
2018-04-12T14:22:58.005Z,21.73
2018-04-12T14:25:27.935Z,21.68
2018-04-12T14:27:57.086Z,21.78
2018-04-12T14:30:26.212Z,21.49
2018-04-12T14:32:56.457Z,21.30
2018-04-12T14:35:26.918Z,21.72
2018-04-12T14:37:55.999Z,21.49
2018-04-12T14:40:25.225Z,21.64
2018-04-12T14:42:54.229Z,21.15
2018-04-12T14:45:23.829Z,21.54
2018-04-12T14:47:54.231Z,21.58
2018-04-12T14:50:22.649Z,21.54
2018-04-12T14:52:51.213Z,21.62
2018-04-12T14:55:20.567Z,21.65
2018-04-12T14:57:48.948Z,22.25
2018-04-12T15:00:17.985Z,21.93
2018-04-12T15:02:47.564Z,21.93
2018-04-12T15:05:16.600Z,21.57
2018-04-12T15:07:46.047Z,22.16
2018-04-12T15:10:14.400Z,21.99
2018-04-12T15:12:44.127Z,22.80
2018-04-12T15:15:13.351Z,22.61
2018-04-12T15:17:41.683Z,22.10
2018-04-12T15:20:10.117Z,21.82
2018-04-12T15:22:39.286Z,22.12
2018-04-12T15:25:07.731Z,21.72
2018-04-12T15:27:36.095Z,22.03
2018-04-12T15:30:05.334Z,22.19
2018-04-12T15:32:35.070Z,21.87
2018-04-12T15:35:03.632Z,22.06
2018-04-12T15:37:32.240Z,21.60
2018-04-12T15:40:02.236Z,21.82
2018-04-12T15:42:31.726Z,21.53
2018-04-12T15:45:00.384Z,21.86
2018-04-12T15:47:29.590Z,21.98
2018-04-12T15:49:59.094Z,21.41
2018-04-12T15:52:28.352Z,21.49
2018-04-12T15:54:57.738Z,21.44
2018-04-12T15:57:26.470Z,21.78
2018-04-12T15:59:54.871Z,22.06
2018-04-12T16:02:23.823Z,21.77
2018-04-12T16:04:52.236Z,21.36
2018-04-12T16:07:20.596Z,21.55
2018-04-12T16:09:50.626Z,21.22
2018-04-12T16:12:19.508Z,21.24
2018-04-12T16:14:47.911Z,21.58
2018-04-12T16:17:17.235Z,21.56
2018-04-12T16:19:45.825Z,21.99
2018-04-12T16:22:15.100Z,21.91
2018-04-12T16:24:44.329Z,22.51
2018-04-12T16:27:14.393Z,22.17
2018-04-12T16:29:42.772Z,22.43
2018-04-12T16:32:11.978Z,22.24
2018-04-12T16:34:41.110Z,21.80
2018-04-12T16:37:10.047Z,21.89
2018-04-12T16:39:38.919Z,22.17
2018-04-12T16:42:09.209Z,22.57
2018-04-12T16:44:37.931Z,22.42
2018-04-12T16:47:07.664Z,21.76
2018-04-12T16:49:36.816Z,22.37
2018-04-12T16:52:05.877Z,22.16
2018-04-12T16:54:35.136Z,22.09
2018-04-12T16:57:04.905Z,22.22
2018-04-12T16:59:34.796Z,21.91
2018-04-12T17:02:04.333Z,21.49
2018-04-12T17:04:33.351Z,21.96
2018-04-12T17:07:03.474Z,21.52
2018-04-12T17:09:32.576Z,21.16
2018-04-12T17:12:02.693Z,21.15
2018-04-12T17:14:31.374Z,21.29
2018-04-12T17:17:00.670Z,21.16
2018-04-12T17:19:29.962Z,21.45
2018-04-12T17:21:59.141Z,20.85
2018-04-12T17:24:27.748Z,21.21
2018-04-12T17:26:56.181Z,21.07
2018-04-12T17:29:25.480Z,21.57
2018-04-12T17:31:54.046Z,21.88
2018-04-12T17:34:22.933Z,22.27
2018-04-12T17:36:52.012Z,22.45
2018-04-12T17:39:21.229Z,22.70
2018-04-12T17:41:49.702Z,22.68
2018-04-12T17:44:19.821Z,23.11
2018-04-12T17:46:48.192Z,23.52
2018-04-12T17:49:18.138Z,23.51
2018-04-12T17:51:47.986Z,23.20
2018-04-12T17:54:16.827Z,22.66
2018-04-12T17:56:46.464Z,22.31
2018-04-12T17:59:15.755Z,21.92
2018-04-12T18:01:44.925Z,21.77
2018-04-12T18:04:13.301Z,21.56
2018-04-12T18:06:42.184Z,21.39
2018-04-12T18:09:11.104Z,21.13
2018-04-12T18:11:39.892Z,21.08
2018-04-12T18:14:08.446Z,21.11
2018-04-12T18:16:38.547Z,21.07
2018-04-12T18:19:08.195Z,20.98
2018-04-12T18:21:38.153Z,20.86
2018-04-12T18:24:07.439Z,20.76
2018-04-12T18:26:36.750Z,20.57
2018-04-12T18:29:07.051Z,20.43
2018-04-12T18:31:35.516Z,20.16
2018-04-12T18:34:04.693Z,19.98
2018-04-12T18:36:34.310Z,19.77
2018-04-12T18:39:02.921Z,19.89
2018-04-12T18:41:31.748Z,19.87
2018-04-12T18:44:01.853Z,19.63
2018-04-12T18:46:31.296Z,19.51
2018-04-12T18:49:00.465Z,19.44
2018-04-12T18:51:29.097Z,19.45
2018-04-12T18:53:59.744Z,19.32
2018-04-12T18:56:29.314Z,19.14
2018-04-12T18:58:59.306Z,19.19
2018-04-12T19:01:30.392Z,19.10
2018-04-12T19:03:58.994Z,19.16
2018-04-12T19:06:27.406Z,19.22
2018-04-12T19:08:55.773Z,19.00
2018-04-12T19:11:24.124Z,18.73
2018-04-12T19:13:54.077Z,18.60
2018-04-12T19:16:24.040Z,18.57
2018-04-12T19:18:52.360Z,18.47
2018-04-12T19:21:20.729Z,18.37
2018-04-12T19:23:49.285Z,18.40
2018-04-12T19:26:17.769Z,18.41
2018-04-12T19:28:47.559Z,18.56
2018-04-12T19:31:16.482Z,18.60
2018-04-12T19:33:44.807Z,18.70
2018-04-12T19:36:13.432Z,18.77
2018-04-12T19:38:42.520Z,18.72
2018-04-12T19:41:11.152Z,18.67
2018-04-12T19:43:39.741Z,18.71
2018-04-12T19:46:09.030Z,18.69
2018-04-12T19:48:38.085Z,18.65
2018-04-12T19:51:07.259Z,18.77
2018-04-12T19:53:36.598Z,18.73
2018-04-12T19:56:05.418Z,18.75
2018-04-12T19:58:35.498Z,18.48
2018-04-12T20:01:04.663Z,18.49
2018-04-12T20:03:33.154Z,18.49
2018-04-12T20:06:01.510Z,18.51
2018-04-12T20:08:30.551Z,18.50
2018-04-12T20:11:00.482Z,18.45
2018-04-12T20:13:28.841Z,18.45
2018-04-12T20:15:57.257Z,18.42
2018-04-12T20:18:26.975Z,18.50
2018-04-12T20:20:55.588Z,18.27
2018-04-12T20:23:25.210Z,18.12
2018-04-12T20:25:54.316Z,18.06
2018-04-12T20:28:24.474Z,17.96
2018-04-12T20:30:53.250Z,17.92
2018-04-12T20:33:21.602Z,18.11
2018-04-12T20:35:49.991Z,18.09
2018-04-12T20:38:20.563Z,17.92
2018-04-12T20:40:48.986Z,17.71
2018-04-12T20:43:17.314Z,17.46
2018-04-12T20:45:45.716Z,17.26
2018-04-12T20:48:14.621Z,17.18
2018-04-12T20:50:44.510Z,17.08
2018-04-12T20:53:16.467Z,17.16
2018-04-12T20:55:45.172Z,17.17
2018-04-12T20:58:15.477Z,17.27
2018-04-12T21:00:44.933Z,17.27
2018-04-12T21:03:13.898Z,17.30
2018-04-12T21:05:43.105Z,17.19
2018-04-12T21:08:11.460Z,17.26
2018-04-12T21:10:41.538Z,17.30
2018-04-12T21:13:11.547Z,17.22
2018-04-12T21:15:40.631Z,17.10
2018-04-12T21:18:09.881Z,17.12
2018-04-12T21:20:38.241Z,17.05
2018-04-12T21:23:08.051Z,17.01
2018-04-12T21:25:36.466Z,16.91
2018-04-12T21:28:04.886Z,16.76
2018-04-12T21:30:33.490Z,16.59
2018-04-12T21:33:01.923Z,16.61
2018-04-12T21:35:31.268Z,16.37
2018-04-12T21:37:59.596Z,16.20
2018-04-12T21:40:29.919Z,16.21
2018-04-12T21:42:58.291Z,16.27
2018-04-12T21:45:27.987Z,16.33
2018-04-12T21:47:57.477Z,16.40
2018-04-12T21:50:25.970Z,16.42
2018-04-12T21:52:54.309Z,16.36
2018-04-12T21:55:23.755Z,16.37
2018-04-12T21:57:53.272Z,16.29
2018-04-12T22:00:21.645Z,16.21
2018-04-12T22:02:51.715Z,16.14
2018-04-12T22:05:22.374Z,16.17
2018-04-12T22:07:51.827Z,16.00
2018-04-12T22:10:20.529Z,15.91
2018-04-12T22:12:52.539Z,15.93
2018-04-12T22:15:22.133Z,15.97
2018-04-12T22:17:50.585Z,16.01
2018-04-12T22:20:19.704Z,15.78
2018-04-12T22:22:54.009Z,15.65
2018-04-12T22:25:22.978Z,15.55
2018-04-12T22:27:52.222Z,15.54
2018-04-12T22:30:22.799Z,15.43
2018-04-12T22:32:53.273Z,15.37
2018-04-12T22:35:22.798Z,15.26
2018-04-12T22:37:51.717Z,15.14
2018-04-12T22:40:20.850Z,15.03
2018-04-12T22:42:50.200Z,14.91
2018-04-12T22:45:19.146Z,14.89
2018-04-12T22:47:48.207Z,14.92
2018-04-12T22:50:16.972Z,14.88
2018-04-12T22:52:45.982Z,14.95
2018-04-12T22:55:15.485Z,14.63
2018-04-12T22:57:46.617Z,14.90
2018-04-12T23:00:16.631Z,14.91
2018-04-12T23:02:44.759Z,14.96
2018-04-12T23:05:15.020Z,14.87
2018-04-12T23:07:43.658Z,14.79
2018-04-12T23:10:13.117Z,14.80
2018-04-12T23:12:41.514Z,14.70
2018-04-12T23:15:10.553Z,14.66
2018-04-12T23:17:38.959Z,14.54
2018-04-12T23:20:08.007Z,14.44
2018-04-12T23:22:37.573Z,14.34
2018-04-12T23:25:06.698Z,14.31
2018-04-12T23:27:35.167Z,14.26
2018-04-12T23:30:03.531Z,14.29
2018-04-12T23:32:33.024Z,14.31
2018-04-12T23:35:01.362Z,14.30
2018-04-12T23:37:30.753Z,14.30
2018-04-12T23:39:59.181Z,14.37
2018-04-12T23:42:27.526Z,14.29
2018-04-12T23:44:56.645Z,14.39
2018-04-12T23:47:25.410Z,14.23
2018-04-12T23:49:55.359Z,14.38
2018-04-12T23:52:24.690Z,14.31
2018-04-12T23:54:53.106Z,14.19
2018-04-12T23:57:22.690Z,14.17
2018-04-12T23:59:51.839Z,14.10
